createdAt,value
2018-09-29T00:01:26.512Z,4.80
2018-09-29T00:03:54.995Z,4.80
2018-09-29T00:06:23.571Z,3.93
2018-09-29T00:08:52.167Z,5.47
2018-09-29T00:11:20.673Z,4.73
2018-09-29T00:13:49.191Z,4.10
2018-09-29T00:16:17.704Z,5.03
2018-09-29T00:18:46.257Z,4.50
2018-09-29T00:21:14.763Z,4.47
2018-09-29T00:23:43.271Z,4.10
2018-09-29T00:26:11.781Z,5.07
2018-09-29T00:28:40.344Z,5.47
2018-09-29T00:31:08.943Z,4.97
2018-09-29T00:33:38.121Z,5.30
2018-09-29T00:36:06.857Z,3.93
2018-09-29T00:38:35.354Z,4.30
2018-09-29T00:41:03.874Z,4.70
2018-09-29T00:43:32.374Z,4.30
2018-09-29T00:46:00.860Z,3.57
2018-09-29T00:48:29.420Z,4.20
2018-09-29T00:50:57.969Z,4.20
2018-09-29T00:53:26.504Z,4.17
2018-09-29T00:55:55.024Z,4.00
2018-09-29T00:58:23.531Z,3.80
2018-09-29T01:00:52.064Z,3.60
2018-09-29T01:03:20.592Z,3.50
2018-09-29T01:05:49.151Z,3.57
2018-09-29T01:08:17.792Z,3.77
2018-09-29T01:10:46.303Z,3.53
2018-09-29T01:13:14.812Z,4.27
2018-09-29T01:15:43.388Z,4.60
2018-09-29T01:18:11.937Z,5.17
2018-09-29T01:20:40.488Z,4.60
2018-09-29T01:23:09.008Z,4.63
2018-09-29T01:25:37.532Z,5.20
2018-09-29T01:28:06.047Z,5.60
2018-09-29T01:30:34.547Z,4.70
2018-09-29T01:33:03.056Z,5.40
2018-09-29T01:35:31.554Z,5.37
2018-09-29T01:38:00.052Z,7.17
2018-09-29T01:40:28.591Z,7.23
2018-09-29T01:42:57.100Z,7.43
2018-09-29T01:45:25.645Z,8.73
2018-09-29T01:47:54.175Z,8.63
2018-09-29T01:50:22.712Z,9.90
2018-09-29T01:52:51.261Z,10.67
2018-09-29T01:55:19.769Z,10.00
2018-09-29T01:57:48.287Z,9.70
2018-09-29T02:00:16.809Z,10.50
2018-09-29T02:02:45.338Z,8.27
2018-09-29T02:05:13.905Z,9.57
2018-09-29T02:07:42.383Z,10.27
2018-09-29T02:10:10.912Z,9.60
2018-09-29T02:12:39.415Z,10.40
2018-09-29T02:15:07.941Z,8.90
2018-09-29T02:17:36.477Z,9.43
2018-09-29T02:20:05.275Z,11.57
2018-09-29T02:22:33.815Z,11.23
2018-09-29T02:25:02.306Z,10.73
2018-09-29T02:27:30.820Z,11.70
2018-09-29T02:29:59.347Z,11.30
2018-09-29T02:32:27.829Z,11.27
2018-09-29T02:34:56.355Z,12.50
2018-09-29T02:37:24.916Z,11.23
2018-09-29T02:39:53.422Z,11.57
2018-09-29T02:42:21.951Z,12.03
2018-09-29T02:44:50.435Z,12.07
2018-09-29T02:47:19.002Z,12.23
2018-09-29T02:49:47.532Z,12.63
2018-09-29T02:52:16.088Z,13.20
2018-09-29T02:54:44.584Z,12.67
2018-09-29T02:57:13.076Z,12.83
2018-09-29T02:59:41.634Z,12.90
2018-09-29T03:02:10.136Z,11.80
2018-09-29T03:04:38.653Z,11.97
2018-09-29T03:07:07.238Z,13.57
2018-09-29T03:09:35.717Z,12.30
2018-09-29T03:12:04.227Z,11.80
2018-09-29T03:14:32.752Z,11.03
2018-09-29T03:17:01.369Z,13.20
2018-09-29T03:19:29.884Z,13.77
2018-09-29T03:21:58.416Z,11.20
2018-09-29T03:24:26.944Z,9.90
2018-09-29T03:26:55.497Z,12.20
2018-09-29T03:29:23.996Z,10.33
2018-09-29T03:31:52.574Z,9.57
2018-09-29T03:34:20.985Z,11.03
2018-09-29T03:36:49.487Z,10.30
2018-09-29T03:39:18.040Z,12.43
2018-09-29T03:41:46.604Z,10.90
2018-09-29T03:44:15.140Z,9.17
2018-09-29T03:46:43.666Z,11.30
2018-09-29T03:49:12.165Z,8.77
2018-09-29T03:51:40.687Z,9.57
2018-09-29T03:54:09.187Z,9.00
2018-09-29T03:56:37.721Z,8.20
2018-09-29T03:59:06.272Z,9.70
2018-09-29T04:01:35.116Z,9.30
2018-09-29T04:04:06.464Z,9.20
2018-09-29T04:06:35.007Z,9.07
2018-09-29T04:09:04.009Z,8.10
2018-09-29T04:11:32.528Z,8.30
2018-09-29T04:14:01.258Z,8.70
2018-09-29T04:16:29.654Z,7.50
2018-09-29T04:18:58.192Z,8.80
2018-09-29T04:21:26.710Z,8.43
2018-09-29T04:23:55.220Z,8.10
2018-09-29T04:26:23.725Z,8.40
2018-09-29T04:28:52.226Z,7.60
2018-09-29T04:31:20.725Z,7.43
2018-09-29T04:33:49.236Z,6.80
2018-09-29T04:36:17.759Z,7.27
2018-09-29T04:38:46.284Z,7.80
2018-09-29T04:41:14.808Z,7.47
2018-09-29T04:43:43.295Z,7.40
2018-09-29T04:46:11.837Z,8.10
2018-09-29T04:48:40.388Z,7.33
2018-09-29T04:51:08.883Z,7.57
2018-09-29T04:53:37.418Z,8.00
2018-09-29T04:56:05.988Z,8.33
2018-09-29T04:58:34.586Z,8.97
2018-09-29T05:01:03.275Z,9.23
2018-09-29T05:03:31.800Z,8.83
2018-09-29T05:06:00.355Z,9.03
2018-09-29T05:08:28.876Z,8.63
2018-09-29T05:10:57.424Z,8.27
2018-09-29T05:13:25.944Z,8.40
2018-09-29T05:15:54.452Z,7.77
2018-09-29T05:18:22.949Z,8.70
2018-09-29T05:20:51.487Z,7.97
2018-09-29T05:23:20.092Z,8.50
2018-09-29T05:25:48.620Z,8.53
2018-09-29T05:28:17.159Z,7.87
2018-09-29T05:30:45.696Z,8.37
2018-09-29T05:33:14.444Z,8.40
2018-09-29T05:35:42.995Z,8.80
2018-09-29T05:38:11.467Z,7.70
2018-09-29T05:40:39.984Z,8.40
2018-09-29T05:43:08.539Z,8.73
2018-09-29T05:45:37.055Z,8.23
2018-09-29T05:48:05.608Z,6.73
2018-09-29T05:50:34.087Z,8.80
2018-09-29T05:53:02.587Z,9.17
2018-09-29T05:55:31.168Z,8.73
2018-09-29T05:57:59.660Z,8.50
2018-09-29T06:00:28.247Z,8.50
2018-09-29T06:02:56.752Z,9.03
2018-09-29T06:05:25.341Z,9.43
2018-09-29T06:07:53.835Z,10.30
2018-09-29T06:10:22.349Z,9.40
2018-09-29T06:12:50.948Z,9.27
2018-09-29T06:15:19.482Z,8.80
2018-09-29T06:17:47.987Z,7.83
2018-09-29T06:20:16.514Z,9.47
2018-09-29T06:22:45.017Z,8.03
2018-09-29T06:25:13.545Z,9.37
2018-09-29T06:27:42.071Z,7.87
2018-09-29T06:30:10.573Z,8.30
2018-09-29T06:32:39.082Z,8.00
2018-09-29T06:35:07.629Z,9.20
2018-09-29T06:37:36.194Z,8.03
2018-09-29T06:40:05.055Z,7.03
2018-09-29T06:42:33.603Z,7.30
2018-09-29T06:45:02.120Z,9.03
2018-09-29T06:47:30.658Z,7.77
2018-09-29T06:49:59.177Z,7.10
2018-09-29T06:52:27.713Z,8.20
2018-09-29T06:54:56.224Z,6.70
2018-09-29T06:57:24.752Z,8.07
2018-09-29T06:59:53.249Z,6.80
2018-09-29T07:02:22.528Z,7.73
2018-09-29T07:04:51.068Z,7.40
2018-09-29T07:07:19.568Z,7.47
2018-09-29T07:09:48.103Z,6.77
2018-09-29T07:12:16.629Z,7.30
2018-09-29T07:14:45.339Z,6.50
2018-09-29T07:17:13.855Z,6.40
2018-09-29T07:19:42.473Z,7.27
2018-09-29T07:22:10.985Z,6.60
2018-09-29T07:24:39.528Z,7.27
2018-09-29T07:27:08.068Z,7.20
2018-09-29T07:29:36.563Z,8.60
2018-09-29T07:32:05.078Z,7.07
2018-09-29T07:34:33.589Z,8.13
2018-09-29T07:37:02.129Z,8.77
2018-09-29T07:39:30.707Z,7.07
2018-09-29T07:41:59.247Z,8.30
2018-09-29T07:44:27.808Z,8.30
2018-09-29T07:46:56.300Z,8.30
2018-09-29T07:49:24.789Z,8.97
2018-09-29T07:51:53.356Z,8.07
2018-09-29T07:54:23.224Z,8.40
2018-09-29T07:56:51.843Z,7.70
2018-09-29T07:59:20.360Z,9.07
2018-09-29T08:01:48.925Z,9.73
2018-09-29T08:04:17.448Z,8.30
2018-09-29T08:06:45.987Z,8.87
2018-09-29T08:09:14.513Z,9.43
2018-09-29T08:11:44.484Z,9.10
2018-09-29T08:14:13.077Z,10.40
2018-09-29T08:16:41.624Z,9.43
2018-09-29T08:19:10.175Z,7.50
2018-09-29T08:21:38.714Z,10.57
2018-09-29T08:24:07.102Z,10.60
2018-09-29T08:26:35.651Z,9.43
2018-09-29T08:29:04.163Z,8.70
2018-09-29T08:31:32.684Z,9.40
2018-09-29T08:34:01.253Z,8.50
2018-09-29T08:36:29.830Z,9.70
2018-09-29T08:38:58.356Z,7.83
2018-09-29T08:41:26.956Z,10.43
2018-09-29T08:43:57.098Z,8.87
2018-09-29T08:46:27.345Z,7.27
2018-09-29T08:48:55.918Z,8.33
2018-09-29T08:51:25.019Z,9.20
2018-09-29T08:53:53.545Z,10.00
2018-09-29T08:56:22.069Z,8.10
2018-09-29T08:58:50.660Z,7.53
2018-09-29T09:01:19.865Z,8.97
2018-09-29T09:03:48.426Z,8.83
2018-09-29T09:06:17.089Z,7.77
2018-09-29T09:08:45.588Z,8.20
2018-09-29T09:11:14.125Z,7.87
2018-09-29T09:13:42.678Z,8.93
2018-09-29T09:16:11.204Z,7.67
2018-09-29T09:18:39.752Z,8.47
2018-09-29T09:21:08.284Z,8.27
2018-09-29T09:23:36.850Z,8.17
2018-09-29T09:26:05.421Z,8.07
2018-09-29T09:28:33.939Z,8.80
2018-09-29T09:31:02.512Z,9.40
2018-09-29T09:33:31.020Z,8.23
2018-09-29T09:35:59.611Z,9.17
2018-09-29T09:38:28.099Z,8.90
2018-09-29T09:40:56.654Z,8.17
2018-09-29T09:43:25.152Z,9.80
2018-09-29T09:45:53.664Z,8.57
2018-09-29T09:48:22.220Z,9.57
2018-09-29T09:50:50.772Z,8.37
2018-09-29T09:53:19.304Z,9.33
2018-09-29T09:55:47.869Z,8.20
2018-09-29T09:58:16.376Z,9.57
2018-09-29T10:00:50.165Z,9.77
2018-09-29T10:03:23.907Z,9.60
2018-09-29T10:05:52.451Z,9.97
2018-09-29T10:08:20.980Z,9.50
2018-09-29T10:10:49.532Z,9.33
2018-09-29T10:13:18.064Z,11.33
2018-09-29T10:15:46.593Z,10.47
2018-09-29T10:18:15.200Z,10.10
2018-09-29T10:20:43.780Z,11.10
2018-09-29T10:23:12.325Z,11.03
2018-09-29T10:25:40.879Z,9.27
2018-09-29T10:28:09.401Z,10.90
2018-09-29T10:30:37.936Z,10.70
2018-09-29T10:33:06.519Z,12.00
2018-09-29T10:35:35.024Z,11.73
2018-09-29T10:38:03.551Z,11.80
2018-09-29T10:40:32.058Z,11.30
2018-09-29T10:43:00.652Z,10.40
2018-09-29T10:45:29.206Z,11.60
2018-09-29T10:47:57.704Z,10.80
2018-09-29T10:50:26.252Z,10.70
2018-09-29T10:52:54.810Z,11.13
2018-09-29T10:55:23.603Z,10.57
2018-09-29T10:57:52.133Z,8.63
2018-09-29T11:00:20.670Z,10.00
2018-09-29T11:02:49.199Z,9.63
2018-09-29T11:05:17.713Z,8.90
2018-09-29T11:07:46.257Z,9.33
2018-09-29T11:10:14.767Z,8.33
2018-09-29T11:12:43.265Z,9.00
2018-09-29T11:15:11.792Z,8.23
2018-09-29T11:17:40.276Z,8.70
2018-09-29T11:20:08.812Z,8.00
2018-09-29T11:22:37.326Z,8.60
2018-09-29T11:25:05.820Z,7.57
2018-09-29T11:27:34.356Z,8.17
2018-09-29T11:30:02.905Z,6.97
2018-09-29T11:32:31.445Z,7.40
2018-09-29T11:34:59.956Z,8.90
2018-09-29T11:37:28.440Z,6.83
2018-09-29T11:39:56.983Z,6.70
2018-09-29T11:42:25.487Z,7.30
2018-09-29T11:44:54.080Z,6.97
2018-09-29T11:47:22.527Z,7.07
2018-09-29T11:49:51.007Z,6.83
2018-09-29T11:52:19.584Z,7.77
2018-09-29T11:54:48.074Z,6.23
2018-09-29T11:57:16.579Z,5.47
2018-09-29T11:59:45.127Z,7.13
2018-09-29T12:02:13.684Z,6.50
2018-09-29T12:04:42.195Z,6.17
2018-09-29T12:07:10.748Z,6.20
2018-09-29T12:09:39.234Z,6.47
2018-09-29T12:12:08.145Z,8.53
2018-09-29T12:14:36.691Z,7.97
2018-09-29T12:17:05.490Z,6.40
2018-09-29T12:19:34.004Z,6.80
2018-09-29T12:22:02.537Z,6.73
2018-09-29T12:24:32.302Z,6.83
2018-09-29T12:27:00.983Z,7.63
2018-09-29T12:29:29.574Z,7.87
2018-09-29T12:31:58.051Z,6.40
2018-09-29T12:34:27.179Z,6.67
2018-09-29T12:36:55.723Z,6.90
2018-09-29T12:39:24.197Z,7.30
2018-09-29T12:41:53.668Z,7.93
2018-09-29T12:44:24.684Z,6.77
2018-09-29T12:46:53.207Z,6.00
2018-09-29T12:49:21.808Z,7.97
2018-09-29T12:51:50.385Z,7.30
2018-09-29T12:54:18.895Z,6.10
2018-09-29T12:56:47.423Z,8.70
2018-09-29T12:59:16.163Z,7.03
2018-09-29T13:01:44.660Z,6.70
2018-09-29T13:04:13.161Z,7.57
2018-09-29T13:06:41.717Z,6.60
2018-09-29T13:09:10.216Z,7.93
2018-09-29T13:11:38.876Z,6.57
2018-09-29T13:14:07.498Z,6.40
2018-09-29T13:16:36.117Z,6.57
2018-09-29T13:19:04.671Z,6.67
2018-09-29T13:21:33.156Z,5.87
2018-09-29T13:24:01.684Z,6.33
2018-09-29T13:26:30.203Z,7.07
2018-09-29T13:28:58.699Z,6.80
2018-09-29T13:31:27.201Z,5.00
2018-09-29T13:33:55.724Z,5.03
2018-09-29T13:36:24.233Z,5.80
2018-09-29T13:38:52.756Z,5.70
2018-09-29T13:41:21.295Z,5.23
2018-09-29T13:43:49.865Z,6.10
2018-09-29T13:46:18.404Z,5.37
2018-09-29T13:48:46.909Z,5.10
2018-09-29T13:51:15.413Z,5.40
2018-09-29T13:53:44.318Z,4.17
2018-09-29T13:56:12.844Z,5.80
2018-09-29T13:58:41.327Z,5.83
2018-09-29T14:01:09.842Z,5.13
2018-09-29T14:03:38.359Z,5.20
2018-09-29T14:06:07.100Z,4.50
2018-09-29T14:08:35.701Z,4.13
2018-09-29T14:11:04.196Z,5.40
2018-09-29T14:13:32.720Z,4.00
2018-09-29T14:16:01.201Z,5.27
2018-09-29T14:18:29.724Z,4.63
2018-09-29T14:20:58.344Z,5.37
2018-09-29T14:23:26.869Z,4.63
2018-09-29T14:25:55.375Z,4.93
2018-09-29T14:28:30.641Z,4.70
2018-09-29T14:30:59.145Z,5.47
2018-09-29T14:33:27.627Z,4.93
2018-09-29T14:35:56.170Z,3.77
2018-09-29T14:38:24.696Z,4.83
2018-09-29T14:40:53.226Z,4.80
2018-09-29T14:43:21.724Z,4.03
2018-09-29T14:45:50.217Z,3.50
2018-09-29T14:48:18.734Z,3.70
2018-09-29T14:50:47.253Z,3.13
2018-09-29T14:53:15.825Z,3.50
2018-09-29T14:55:44.315Z,3.73
2018-09-29T14:58:12.844Z,4.17
2018-09-29T15:00:41.388Z,3.87
2018-09-29T15:03:09.899Z,3.00
2018-09-29T15:05:38.495Z,3.80
2018-09-29T15:08:07.026Z,3.47
2018-09-29T15:10:35.579Z,3.80
2018-09-29T15:13:04.301Z,4.17
2018-09-29T15:15:32.819Z,3.87
2018-09-29T15:18:01.584Z,3.47
2018-09-29T15:20:31.126Z,3.97
2018-09-29T15:23:00.099Z,3.30
2018-09-29T15:25:28.729Z,4.97
2018-09-29T15:27:57.239Z,3.47
2018-09-29T15:30:25.745Z,3.67
2018-09-29T15:32:54.241Z,3.07
2018-09-29T15:35:22.760Z,3.73
2018-09-29T15:37:51.300Z,3.20
2018-09-29T15:40:19.843Z,3.43
2018-09-29T15:42:48.512Z,3.43
2018-09-29T15:45:17.010Z,3.10
2018-09-29T15:47:45.521Z,3.27
2018-09-29T15:50:14.019Z,3.10
2018-09-29T15:52:42.656Z,3.90
2018-09-29T15:55:11.213Z,3.53
2018-09-29T15:57:39.745Z,3.53
2018-09-29T16:00:08.284Z,3.73
2018-09-29T16:02:36.785Z,2.73
2018-09-29T16:05:05.600Z,3.37
2018-09-29T16:07:34.150Z,3.90
2018-09-29T16:10:03.028Z,4.27
2018-09-29T16:12:31.818Z,4.07
2018-09-29T16:15:00.388Z,3.30
2018-09-29T16:17:28.880Z,3.20
2018-09-29T16:19:57.396Z,3.20
2018-09-29T16:22:25.932Z,4.93
2018-09-29T16:24:54.412Z,3.30
2018-09-29T16:27:22.945Z,3.40
2018-09-29T16:29:51.448Z,3.10
2018-09-29T16:32:19.989Z,3.60
2018-09-29T16:34:48.493Z,2.80
2018-09-29T16:37:17.078Z,3.27
2018-09-29T16:39:45.572Z,3.00
2018-09-29T16:42:14.088Z,2.73
2018-09-29T16:44:42.629Z,3.60
2018-09-29T16:47:11.145Z,3.73
2018-09-29T16:49:39.700Z,4.93
2018-09-29T16:52:08.212Z,3.30
2018-09-29T16:54:36.694Z,3.53
2018-09-29T16:57:05.307Z,3.37
2018-09-29T16:59:33.822Z,3.33
2018-09-29T17:02:02.497Z,3.50
2018-09-29T17:04:31.227Z,3.10
2018-09-29T17:06:59.825Z,3.83
2018-09-29T17:09:28.405Z,2.70
2018-09-29T17:11:56.938Z,3.67
2018-09-29T17:14:25.496Z,3.17
2018-09-29T17:16:54.023Z,3.80
2018-09-29T17:19:22.528Z,3.90
2018-09-29T17:21:51.102Z,3.87
2018-09-29T17:24:19.612Z,3.30
2018-09-29T17:26:48.187Z,5.50
2018-09-29T17:29:16.721Z,4.40
2018-09-29T17:31:45.293Z,3.13
2018-09-29T17:34:13.839Z,4.03
2018-09-29T17:36:42.356Z,3.37
2018-09-29T17:39:11.849Z,3.63
2018-09-29T17:41:40.832Z,3.80
2018-09-29T17:44:09.614Z,4.70
2018-09-29T17:46:38.216Z,4.53
2018-09-29T17:49:06.760Z,3.93
2018-09-29T17:51:35.297Z,3.57
2018-09-29T17:54:03.880Z,3.30
2018-09-29T17:56:32.398Z,3.63
2018-09-29T17:59:01.258Z,3.73
2018-09-29T18:01:29.776Z,3.13
2018-09-29T18:03:58.456Z,3.40
2018-09-29T18:06:26.967Z,2.97
2018-09-29T18:08:55.513Z,3.70
2018-09-29T18:11:24.037Z,4.07
2018-09-29T18:13:52.553Z,3.13
2018-09-29T18:16:21.045Z,3.10
2018-09-29T18:18:49.580Z,3.67
2018-09-29T18:21:18.152Z,4.03
2018-09-29T18:23:46.627Z,3.30
2018-09-29T18:26:15.149Z,3.87
2018-09-29T18:28:43.710Z,4.13
2018-09-29T18:31:12.257Z,3.67
2018-09-29T18:33:40.758Z,3.23
2018-09-29T18:36:09.323Z,2.70
2018-09-29T18:38:38.273Z,2.80
2018-09-29T18:41:06.808Z,3.93
2018-09-29T18:43:35.454Z,3.70
2018-09-29T18:46:03.951Z,3.27
2018-09-29T18:48:32.470Z,3.10
2018-09-29T18:51:00.950Z,3.27
2018-09-29T18:53:29.460Z,3.00
2018-09-29T18:55:57.936Z,3.30
2018-09-29T18:58:26.418Z,2.57
2018-09-29T19:00:54.971Z,2.97
2018-09-29T19:03:23.460Z,2.90
2018-09-29T19:05:53.296Z,3.00
2018-09-29T19:08:21.784Z,2.90
2018-09-29T19:10:50.261Z,3.23
2018-09-29T19:13:18.824Z,3.00
2018-09-29T19:15:47.308Z,3.67
2018-09-29T19:18:15.820Z,3.33
2018-09-29T19:20:44.375Z,3.00
2018-09-29T19:23:12.894Z,4.03
2018-09-29T19:25:41.418Z,2.70
2018-09-29T19:28:09.914Z,2.90
2018-09-29T19:30:38.429Z,3.57
2018-09-29T19:33:07.093Z,3.70
2018-09-29T19:35:35.644Z,2.50
2018-09-29T19:38:04.296Z,2.80
2018-09-29T19:40:32.785Z,3.00
2018-09-29T19:43:01.351Z,3.07
2018-09-29T19:45:30.370Z,2.60
2018-09-29T19:47:58.848Z,2.70
2018-09-29T19:50:27.346Z,3.00
2018-09-29T19:52:55.832Z,2.93
2018-09-29T19:55:24.346Z,2.90
2018-09-29T19:57:52.893Z,2.83
2018-09-29T20:00:21.374Z,3.30
2018-09-29T20:02:49.895Z,3.17
2018-09-29T20:05:18.415Z,3.20
2018-09-29T20:07:46.963Z,2.63
2018-09-29T20:10:15.556Z,3.53
2018-09-29T20:12:44.028Z,3.13
2018-09-29T20:15:12.543Z,2.83
2018-09-29T20:17:41.076Z,3.90
2018-09-29T20:20:09.586Z,3.70
2018-09-29T20:22:38.143Z,3.17
2018-09-29T20:25:06.753Z,2.80
2018-09-29T20:27:35.268Z,3.40
2018-09-29T20:30:03.835Z,3.53
2018-09-29T20:32:32.343Z,2.73
2018-09-29T20:35:00.874Z,2.83
2018-09-29T20:37:29.392Z,3.10
2018-09-29T20:39:57.956Z,3.43
2018-09-29T20:42:26.456Z,2.87
2018-09-29T20:44:54.952Z,2.72
2018-09-29T20:47:23.525Z,3.33
2018-09-29T20:49:52.032Z,3.00
2018-09-29T20:52:20.578Z,3.33
2018-09-29T20:54:49.136Z,3.25
2018-09-29T20:57:17.654Z,3.35
2018-09-29T20:59:46.164Z,3.15
2018-09-29T21:02:14.648Z,2.90
2018-09-29T21:04:43.220Z,3.40
2018-09-29T21:07:11.784Z,3.17
2018-09-29T21:09:40.355Z,2.90
2018-09-29T21:12:08.882Z,3.45
2018-09-29T21:14:37.400Z,3.25
2018-09-29T21:17:05.932Z,3.27
2018-09-29T21:19:34.456Z,3.20
2018-09-29T21:22:02.967Z,3.55
2018-09-29T21:24:31.483Z,3.67
2018-09-29T21:26:59.939Z,3.35
2018-09-29T21:29:28.456Z,3.40
2018-09-29T21:31:56.983Z,3.70
2018-09-29T21:34:25.548Z,3.52
2018-09-29T21:36:54.084Z,3.72
2018-09-29T21:39:22.589Z,3.08
2018-09-29T21:41:51.116Z,2.98
2018-09-29T21:44:19.648Z,3.05
2018-09-29T21:46:48.138Z,2.80
2018-09-29T21:49:16.675Z,2.80
2018-09-29T21:51:45.185Z,3.47
2018-09-29T21:54:13.722Z,3.35
2018-09-29T21:56:42.227Z,4.08
2018-09-29T21:59:10.768Z,3.30
2018-09-29T22:01:39.323Z,2.98
2018-09-29T22:04:07.895Z,2.65
2018-09-29T22:06:36.427Z,3.20
2018-09-29T22:09:06.425Z,3.22
2018-09-29T22:11:34.919Z,3.00
2018-09-29T22:14:03.508Z,3.25
2018-09-29T22:16:32.042Z,3.22
2018-09-29T22:19:00.551Z,3.40
2018-09-29T22:21:29.079Z,3.70
2018-09-29T22:23:57.565Z,3.83
2018-09-29T22:26:26.094Z,3.45
2018-09-29T22:28:54.627Z,3.55
2018-09-29T22:31:23.151Z,3.15
2018-09-29T22:33:51.665Z,3.67
2018-09-29T22:36:20.187Z,3.25
2018-09-29T22:38:48.736Z,3.05
2018-09-29T22:41:17.235Z,4.65
2018-09-29T22:43:45.831Z,4.75
2018-09-29T22:46:15.440Z,3.10
2018-09-29T22:48:43.932Z,3.12
2018-09-29T22:51:12.463Z,2.70
2018-09-29T22:53:41.013Z,3.05
2018-09-29T22:56:09.571Z,3.02
2018-09-29T22:58:38.081Z,3.17
2018-09-29T23:01:07.052Z,2.70
2018-09-29T23:03:35.580Z,2.92
2018-09-29T23:06:04.067Z,3.15
2018-09-29T23:08:32.628Z,3.50
2018-09-29T23:11:01.152Z,3.37
2018-09-29T23:13:29.640Z,3.20
2018-09-29T23:15:58.187Z,3.35
2018-09-29T23:18:26.735Z,2.62
2018-09-29T23:20:55.292Z,3.83
2018-09-29T23:23:23.801Z,3.15
2018-09-29T23:25:52.316Z,3.50
2018-09-29T23:28:20.836Z,3.27
2018-09-29T23:30:49.347Z,3.15
2018-09-29T23:33:17.879Z,3.17
2018-09-29T23:35:46.367Z,2.42
2018-09-29T23:38:14.888Z,2.85
2018-09-29T23:40:43.391Z,3.65
2018-09-29T23:43:11.908Z,4.45
2018-09-29T23:45:40.417Z,2.60
2018-09-29T23:48:08.998Z,3.40
2018-09-29T23:50:37.485Z,3.10
2018-09-29T23:53:06.074Z,3.67
2018-09-29T23:55:34.582Z,3.33
2018-09-29T23:58:03.117Z,4.37
